sensor_id;sensor_type;location;lat;lon;timestamp;P1;durP1;ratioP1;P2;durP2;ratioP2
29452;SDS011;16424;50.956;5.320;2023-08-31T00:02:00;3.13;;;1.20;;
29452;SDS011;16424;50.956;5.320;2023-08-31T00:04:26;1.50;;;1.00;;
29452;SDS011;16424;50.956;5.320;2023-08-31T00:06:52;1.60;;;1.20;;
29452;SDS011;16424;50.956;5.320;2023-08-31T00:09:17;1.85;;;1.05;;
29452;SDS011;16424;50.956;5.320;2023-08-31T00:11:44;2.33;;;1.25;;
29452;SDS011;16424;50.956;5.320;2023-08-31T00:14:10;4.60;;;1.45;;
29452;SDS011;16424;50.956;5.320;2023-08-31T00:16:36;1.77;;;1.38;;
29452;SDS011;16424;50.956;5.320;2023-08-31T00:19:02;2.88;;;1.15;;
29452;SDS011;16424;50.956;5.320;2023-08-31T00:21:28;2.88;;;1.52;;
29452;SDS011;16424;50.956;5.320;2023-08-31T00:23:55;1.48;;;1.17;;
29452;SDS011;16424;50.956;5.320;2023-08-31T00:26:21;1.90;;;1.30;;
29452;SDS011;16424;50.956;5.320;2023-08-31T00:28:47;1.50;;;1.23;;
29452;SDS011;16424;50.956;5.320;2023-08-31T00:31:12;1.48;;;1.17;;
29452;SDS011;16424;50.956;5.320;2023-08-31T00:33:38;1.60;;;1.33;;
29452;SDS011;16424;50.956;5.320;2023-08-31T00:36:04;2.38;;;1.20;;
29452;SDS011;16424;50.956;5.320;2023-08-31T00:38:30;2.85;;;1.25;;
29452;SDS011;16424;50.956;5.320;2023-08-31T00:40:56;2.08;;;1.42;;
29452;SDS011;16424;50.956;5.320;2023-08-31T00:43:22;2.80;;;1.25;;
29452;SDS011;16424;50.956;5.320;2023-08-31T00:45:48;2.85;;;1.38;;
29452;SDS011;16424;50.956;5.320;2023-08-31T00:48:19;4.82;;;1.33;;
29452;SDS011;16424;50.956;5.320;2023-08-31T00:50:45;2.97;;;1.30;;
29452;SDS011;16424;50.956;5.320;2023-08-31T00:53:11;3.33;;;1.42;;
29452;SDS011;16424;50.956;5.320;2023-08-31T00:55:37;2.45;;;1.50;;
29452;SDS011;16424;50.956;5.320;2023-08-31T00:58:07;5.10;;;1.45;;
29452;SDS011;16424;50.956;5.320;2023-08-31T01:03:31;1.40;;;1.27;;
29452;SDS011;16424;50.956;5.320;2023-08-31T01:08:59;2.15;;;1.30;;
29452;SDS011;16424;50.956;5.320;2023-08-31T01:11:40;3.10;;;1.40;;
29452;SDS011;16424;50.956;5.320;2023-08-31T01:14:23;2.10;;;1.50;;
29452;SDS011;16424;50.956;5.320;2023-08-31T01:16:50;1.90;;;1.60;;
29452;SDS011;16424;50.956;5.320;2023-08-31T01:22:03;1.95;;;1.38;;
29452;SDS011;16424;50.956;5.320;2023-08-31T01:24:34;2.85;;;1.30;;
29452;SDS011;16424;50.956;5.320;2023-08-31T01:27:00;1.73;;;1.20;;
29452;SDS011;16424;50.956;5.320;2023-08-31T01:29:26;1.48;;;1.38;;
29452;SDS011;16424;50.956;5.320;2023-08-31T01:31:54;1.73;;;1.23;;
29452;SDS011;16424;50.956;5.320;2023-08-31T01:34:20;3.05;;;1.50;;
29452;SDS011;16424;50.956;5.320;2023-08-31T01:36:46;3.40;;;2.03;;
29452;SDS011;16424;50.956;5.320;2023-08-31T01:39:23;2.03;;;1.42;;
29452;SDS011;16424;50.956;5.320;2023-08-31T01:42:00;2.90;;;1.50;;
29452;SDS011;16424;50.956;5.320;2023-08-31T01:44:33;2.30;;;1.65;;
29452;SDS011;16424;50.956;5.320;2023-08-31T01:47:04;2.67;;;1.45;;
29452;SDS011;16424;50.956;5.320;2023-08-31T01:49:37;2.03;;;1.58;;
29452;SDS011;16424;50.956;5.320;2023-08-31T01:52:04;1.83;;;1.50;;
29452;SDS011;16424;50.956;5.320;2023-08-31T01:54:30;2.03;;;1.55;;
29452;SDS011;16424;50.956;5.320;2023-08-31T01:56:56;2.38;;;1.70;;
29452;SDS011;16424;50.956;5.320;2023-08-31T01:59:22;10.48;;;1.80;;
29452;SDS011;16424;50.956;5.320;2023-08-31T02:01:48;3.65;;;1.60;;
29452;SDS011;16424;50.956;5.320;2023-08-31T02:04:13;2.85;;;1.95;;
29452;SDS011;16424;50.956;5.320;2023-08-31T02:06:39;2.22;;;2.03;;
29452;SDS011;16424;50.956;5.320;2023-08-31T02:09:05;4.57;;;1.77;;
29452;SDS011;16424;50.956;5.320;2023-08-31T02:11:31;3.30;;;1.92;;
29452;SDS011;16424;50.956;5.320;2023-08-31T02:14:00;3.95;;;2.10;;
29452;SDS011;16424;50.956;5.320;2023-08-31T02:16:25;2.25;;;2.00;;
29452;SDS011;16424;50.956;5.320;2023-08-31T02:18:51;3.33;;;2.10;;
29452;SDS011;16424;50.956;5.320;2023-08-31T02:21:17;3.63;;;2.00;;
29452;SDS011;16424;50.956;5.320;2023-08-31T02:23:43;2.53;;;2.08;;
29452;SDS011;16424;50.956;5.320;2023-08-31T02:26:11;4.85;;;2.88;;
29452;SDS011;16424;50.956;5.320;2023-08-31T02:28:37;10.20;;;2.58;;
29452;SDS011;16424;50.956;5.320;2023-08-31T02:31:02;4.78;;;2.60;;
29452;SDS011;16424;50.956;5.320;2023-08-31T02:33:28;4.30;;;2.70;;
29452;SDS011;16424;50.956;5.320;2023-08-31T02:35:54;4.15;;;2.22;;
29452;SDS011;16424;50.956;5.320;2023-08-31T02:38:20;3.53;;;2.72;;
29452;SDS011;16424;50.956;5.320;2023-08-31T02:40:46;3.38;;;2.30;;
29452;SDS011;16424;50.956;5.320;2023-08-31T02:43:13;5.10;;;2.83;;
29452;SDS011;16424;50.956;5.320;2023-08-31T02:45:39;4.30;;;2.95;;
29452;SDS011;16424;50.956;5.320;2023-08-31T02:48:08;5.07;;;2.78;;
29452;SDS011;16424;50.956;5.320;2023-08-31T02:50:34;4.63;;;3.85;;
29452;SDS011;16424;50.956;5.320;2023-08-31T02:53:00;5.75;;;4.03;;
29452;SDS011;16424;50.956;5.320;2023-08-31T02:55:26;4.47;;;3.05;;
29452;SDS011;16424;50.956;5.320;2023-08-31T02:57:51;4.53;;;2.97;;
29452;SDS011;16424;50.956;5.320;2023-08-31T03:00:18;5.80;;;3.33;;
29452;SDS011;16424;50.956;5.320;2023-08-31T03:02:46;5.88;;;3.47;;
29452;SDS011;16424;50.956;5.320;2023-08-31T03:05:13;9.00;;;3.58;;
29452;SDS011;16424;50.956;5.320;2023-08-31T03:07:39;4.60;;;3.55;;
29452;SDS011;16424;50.956;5.320;2023-08-31T03:10:04;4.13;;;3.40;;
29452;SDS011;16424;50.956;5.320;2023-08-31T03:12:31;4.00;;;3.38;;
29452;SDS011;16424;50.956;5.320;2023-08-31T03:14:56;7.15;;;3.70;;
29452;SDS011;16424;50.956;5.320;2023-08-31T03:17:22;5.03;;;3.13;;
29452;SDS011;16424;50.956;5.320;2023-08-31T03:19:49;7.15;;;3.60;;
29452;SDS011;16424;50.956;5.320;2023-08-31T03:22:14;4.32;;;3.80;;
29452;SDS011;16424;50.956;5.320;2023-08-31T03:24:40;6.72;;;4.47;;
29452;SDS011;16424;50.956;5.320;2023-08-31T03:27:06;5.90;;;4.20;;
29452;SDS011;16424;50.956;5.320;2023-08-31T03:29:32;6.72;;;4.10;;
29452;SDS011;16424;50.956;5.320;2023-08-31T03:31:59;6.03;;;3.90;;
29452;SDS011;16424;50.956;5.320;2023-08-31T03:34:29;6.22;;;4.32;;
29452;SDS011;16424;50.956;5.320;2023-08-31T03:36:56;5.20;;;4.00;;
29452;SDS011;16424;50.956;5.320;2023-08-31T03:39:22;8.35;;;4.30;;
29452;SDS011;16424;50.956;5.320;2023-08-31T03:41:48;7.63;;;4.25;;
29452;SDS011;16424;50.956;5.320;2023-08-31T03:44:14;10.10;;;4.75;;
29452;SDS011;16424;50.956;5.320;2023-08-31T03:46:40;12.30;;;5.82;;
29452;SDS011;16424;50.956;5.320;2023-08-31T03:49:05;8.48;;;4.55;;
29452;SDS011;16424;50.956;5.320;2023-08-31T03:51:31;7.35;;;4.70;;
29452;SDS011;16424;50.956;5.320;2023-08-31T03:53:57;6.40;;;4.63;;
29452;SDS011;16424;50.956;5.320;2023-08-31T03:56:23;7.82;;;5.15;;
29452;SDS011;16424;50.956;5.320;2023-08-31T03:58:49;7.55;;;4.82;;
29452;SDS011;16424;50.956;5.320;2023-08-31T04:01:14;7.53;;;4.82;;
29452;SDS011;16424;50.956;5.320;2023-08-31T04:03:42;7.93;;;4.72;;
29452;SDS011;16424;50.956;5.320;2023-08-31T04:06:07;17.38;;;5.22;;
29452;SDS011;16424;50.956;5.320;2023-08-31T04:08:33;18.98;;;5.40;;
29452;SDS011;16424;50.956;5.320;2023-08-31T04:10:59;7.50;;;4.70;;
29452;SDS011;16424;50.956;5.320;2023-08-31T04:13:25;9.52;;;4.88;;
29452;SDS011;16424;50.956;5.320;2023-08-31T04:15:51;12.27;;;5.22;;
29452;SDS011;16424;50.956;5.320;2023-08-31T04:18:17;7.53;;;5.57;;
29452;SDS011;16424;50.956;5.320;2023-08-31T04:20:50;7.13;;;5.28;;
29452;SDS011;16424;50.956;5.320;2023-08-31T04:23:17;8.07;;;5.25;;
29452;SDS011;16424;50.956;5.320;2023-08-31T04:25:46;11.38;;;4.68;;
29452;SDS011;16424;50.956;5.320;2023-08-31T04:28:12;10.90;;;4.55;;
29452;SDS011;16424;50.956;5.320;2023-08-31T04:30:39;6.40;;;4.70;;
29452;SDS011;16424;50.956;5.320;2023-08-31T04:33:06;8.95;;;4.97;;
29452;SDS011;16424;50.956;5.320;2023-08-31T04:35:32;8.63;;;5.18;;
29452;SDS011;16424;50.956;5.320;2023-08-31T04:37:58;9.00;;;5.20;;
29452;SDS011;16424;50.956;5.320;2023-08-31T04:40:23;12.13;;;5.28;;
29452;SDS011;16424;50.956;5.320;2023-08-31T04:42:49;9.30;;;5.18;;
29452;SDS011;16424;50.956;5.320;2023-08-31T04:45:15;7.63;;;4.30;;
29452;SDS011;16424;50.956;5.320;2023-08-31T04:47:41;7.85;;;5.07;;
29452;SDS011;16424;50.956;5.320;2023-08-31T04:50:07;11.70;;;5.07;;
29452;SDS011;16424;50.956;5.320;2023-08-31T04:52:33;8.23;;;4.72;;
29452;SDS011;16424;50.956;5.320;2023-08-31T04:55:02;7.60;;;5.10;;
29452;SDS011;16424;50.956;5.320;2023-08-31T04:57:32;7.25;;;4.90;;
29452;SDS011;16424;50.956;5.320;2023-08-31T04:59:58;12.18;;;5.43;;
29452;SDS011;16424;50.956;5.320;2023-08-31T05:02:24;9.55;;;4.53;;
29452;SDS011;16424;50.956;5.320;2023-08-31T05:04:50;7.88;;;4.63;;
29452;SDS011;16424;50.956;5.320;2023-08-31T05:07:16;8.07;;;4.93;;
29452;SDS011;16424;50.956;5.320;2023-08-31T05:09:42;9.65;;;4.25;;
29452;SDS011;16424;50.956;5.320;2023-08-31T05:12:14;12.93;;;4.57;;
29452;SDS011;16424;50.956;5.320;2023-08-31T05:14:40;7.13;;;3.83;;
29452;SDS011;16424;50.956;5.320;2023-08-31T05:17:06;7.32;;;4.38;;
29452;SDS011;16424;50.956;5.320;2023-08-31T05:19:32;7.68;;;4.10;;
29452;SDS011;16424;50.956;5.320;2023-08-31T05:21:58;14.32;;;4.80;;
29452;SDS011;16424;50.956;5.320;2023-08-31T05:24:23;5.75;;;4.60;;
29452;SDS011;16424;50.956;5.320;2023-08-31T05:26:49;7.45;;;4.28;;
29452;SDS011;16424;50.956;5.320;2023-08-31T05:29:15;7.35;;;4.05;;
29452;SDS011;16424;50.956;5.320;2023-08-31T05:31:41;8.43;;;4.07;;
29452;SDS011;16424;50.956;5.320;2023-08-31T05:34:08;11.73;;;4.18;;
29452;SDS011;16424;50.956;5.320;2023-08-31T05:36:35;6.63;;;4.10;;
29452;SDS011;16424;50.956;5.320;2023-08-31T05:39:01;10.55;;;4.00;;
29452;SDS011;16424;50.956;5.320;2023-08-31T05:41:28;5.60;;;3.78;;
29452;SDS011;16424;50.956;5.320;2023-08-31T05:43:53;8.70;;;4.15;;
29452;SDS011;16424;50.956;5.320;2023-08-31T05:46:19;5.72;;;3.67;;
29452;SDS011;16424;50.956;5.320;2023-08-31T05:48:45;8.40;;;4.25;;
29452;SDS011;16424;50.956;5.320;2023-08-31T05:51:10;5.18;;;2.90;;
29452;SDS011;16424;50.956;5.320;2023-08-31T05:53:36;8.40;;;2.20;;
29452;SDS011;16424;50.956;5.320;2023-08-31T05:56:02;4.97;;;2.00;;
29452;SDS011;16424;50.956;5.320;2023-08-31T05:58:32;2.90;;;1.50;;
29452;SDS011;16424;50.956;5.320;2023-08-31T06:00:58;4.32;;;1.98;;
29452;SDS011;16424;50.956;5.320;2023-08-31T06:03:24;3.25;;;1.35;;
29452;SDS011;16424;50.956;5.320;2023-08-31T06:05:50;4.38;;;1.60;;
29452;SDS011;16424;50.956;5.320;2023-08-31T06:08:16;2.08;;;1.48;;
29452;SDS011;16424;50.956;5.320;2023-08-31T06:10:42;3.22;;;1.58;;
29452;SDS011;16424;50.956;5.320;2023-08-31T06:13:08;2.35;;;1.08;;
29452;SDS011;16424;50.956;5.320;2023-08-31T06:15:34;3.22;;;1.33;;
29452;SDS011;16424;50.956;5.320;2023-08-31T06:17:59;3.47;;;1.30;;
29452;SDS011;16424;50.956;5.320;2023-08-31T06:20:25;2.80;;;1.10;;
29452;SDS011;16424;50.956;5.320;2023-08-31T06:22:51;4.10;;;1.33;;
29452;SDS011;16424;50.956;5.320;2023-08-31T06:25:16;3.40;;;1.05;;
29452;SDS011;16424;50.956;5.320;2023-08-31T06:27:43;2.80;;;1.20;;
29452;SDS011;16424;50.956;5.320;2023-08-31T06:30:09;3.03;;;1.20;;
29452;SDS011;16424;50.956;5.320;2023-08-31T06:32:42;2.53;;;1.10;;
29452;SDS011;16424;50.956;5.320;2023-08-31T06:35:09;4.38;;;1.00;;
29452;SDS011;16424;50.956;5.320;2023-08-31T06:37:38;3.80;;;1.50;;
29452;SDS011;16424;50.956;5.320;2023-08-31T06:40:08;3.90;;;0.85;;
29452;SDS011;16424;50.956;5.320;2023-08-31T06:42:38;2.97;;;1.25;;
29452;SDS011;16424;50.956;5.320;2023-08-31T06:45:05;1.88;;;1.00;;
29452;SDS011;16424;50.956;5.320;2023-08-31T06:47:32;2.40;;;1.10;;
29452;SDS011;16424;50.956;5.320;2023-08-31T06:49:59;2.35;;;1.30;;
29452;SDS011;16424;50.956;5.320;2023-08-31T06:52:25;1.85;;;1.35;;
29452;SDS011;16424;50.956;5.320;2023-08-31T06:54:52;2.75;;;1.20;;
29452;SDS011;16424;50.956;5.320;2023-08-31T06:57:25;4.88;;;1.30;;
29452;SDS011;16424;50.956;5.320;2023-08-31T06:59:52;5.18;;;1.40;;
29452;SDS011;16424;50.956;5.320;2023-08-31T07:02:18;4.07;;;1.85;;
29452;SDS011;16424;50.956;5.320;2023-08-31T07:04:44;4.53;;;1.52;;
29452;SDS011;16424;50.956;5.320;2023-08-31T07:07:11;3.75;;;1.58;;
29452;SDS011;16424;50.956;5.320;2023-08-31T07:09:39;6.07;;;1.70;;
29452;SDS011;16424;50.956;5.320;2023-08-31T07:12:08;4.57;;;1.23;;
29452;SDS011;16424;50.956;5.320;2023-08-31T07:14:34;5.18;;;1.60;;
29452;SDS011;16424;50.956;5.320;2023-08-31T07:17:00;2.22;;;0.98;;
29452;SDS011;16424;50.956;5.320;2023-08-31T07:19:26;3.70;;;1.40;;
29452;SDS011;16424;50.956;5.320;2023-08-31T07:21:52;5.70;;;2.00;;
29452;SDS011;16424;50.956;5.320;2023-08-31T07:24:20;3.08;;;1.20;;
29452;SDS011;16424;50.956;5.320;2023-08-31T07:26:46;4.43;;;1.60;;
29452;SDS011;16424;50.956;5.320;2023-08-31T07:29:12;3.92;;;1.42;;
29452;SDS011;16424;50.956;5.320;2023-08-31T07:31:38;5.10;;;1.50;;
29452;SDS011;16424;50.956;5.320;2023-08-31T07:34:04;6.80;;;1.52;;
29452;SDS011;16424;50.956;5.320;2023-08-31T07:36:30;7.03;;;1.65;;
29452;SDS011;16424;50.956;5.320;2023-08-31T07:38:55;3.70;;;1.45;;
29452;SDS011;16424;50.956;5.320;2023-08-31T07:41:21;8.70;;;1.83;;
29452;SDS011;16424;50.956;5.320;2023-08-31T07:43:47;4.50;;;1.70;;
29452;SDS011;16424;50.956;5.320;2023-08-31T07:46:14;5.40;;;1.77;;
29452;SDS011;16424;50.956;5.320;2023-08-31T07:48:41;5.95;;;1.90;;
29452;SDS011;16424;50.956;5.320;2023-08-31T07:51:07;5.63;;;2.40;;
29452;SDS011;16424;50.956;5.320;2023-08-31T07:53:33;6.25;;;1.63;;
29452;SDS011;16424;50.956;5.320;2023-08-31T07:55:59;6.05;;;2.00;;
29452;SDS011;16424;50.956;5.320;2023-08-31T07:58:24;7.63;;;2.35;;
29452;SDS011;16424;50.956;5.320;2023-08-31T08:00:54;4.57;;;1.88;;
29452;SDS011;16424;50.956;5.320;2023-08-31T08:03:21;6.30;;;2.00;;
29452;SDS011;16424;50.956;5.320;2023-08-31T08:05:50;6.00;;;2.25;;
29452;SDS011;16424;50.956;5.320;2023-08-31T08:08:16;5.18;;;1.40;;
29452;SDS011;16424;50.956;5.320;2023-08-31T08:10:41;5.93;;;2.03;;
29452;SDS011;16424;50.956;5.320;2023-08-31T08:13:08;4.13;;;1.70;;
29452;SDS011;16424;50.956;5.320;2023-08-31T08:15:34;4.97;;;1.73;;
29452;SDS011;16424;50.956;5.320;2023-08-31T08:18:00;5.38;;;1.70;;
29452;SDS011;16424;50.956;5.320;2023-08-31T08:20:27;5.93;;;1.70;;
29452;SDS011;16424;50.956;5.320;2023-08-31T08:22:53;6.07;;;2.03;;
29452;SDS011;16424;50.956;5.320;2023-08-31T08:25:20;3.50;;;1.60;;
29452;SDS011;16424;50.956;5.320;2023-08-31T08:27:47;5.45;;;1.80;;
29452;SDS011;16424;50.956;5.320;2023-08-31T08:30:13;6.20;;;2.00;;
29452;SDS011;16424;50.956;5.320;2023-08-31T08:32:40;6.65;;;1.95;;
29452;SDS011;16424;50.956;5.320;2023-08-31T08:35:06;6.78;;;2.53;;
29452;SDS011;16424;50.956;5.320;2023-08-31T08:37:32;5.05;;;2.00;;
29452;SDS011;16424;50.956;5.320;2023-08-31T08:39:58;6.47;;;2.15;;
29452;SDS011;16424;50.956;5.320;2023-08-31T08:42:25;5.47;;;2.05;;
29452;SDS011;16424;50.956;5.320;2023-08-31T08:44:51;6.15;;;1.80;;
29452;SDS011;16424;50.956;5.320;2023-08-31T08:47:17;8.57;;;1.52;;
29452;SDS011;16424;50.956;5.320;2023-08-31T08:49:44;5.78;;;2.33;;
29452;SDS011;16424;50.956;5.320;2023-08-31T08:52:10;4.75;;;1.90;;
29452;SDS011;16424;50.956;5.320;2023-08-31T08:54:37;9.32;;;3.13;;
29452;SDS011;16424;50.956;5.320;2023-08-31T08:57:04;5.00;;;1.75;;
29452;SDS011;16424;50.956;5.320;2023-08-31T08:59:30;5.47;;;2.00;;
29452;SDS011;16424;50.956;5.320;2023-08-31T09:01:56;5.32;;;2.33;;
29452;SDS011;16424;50.956;5.320;2023-08-31T09:04:22;6.25;;;1.92;;
29452;SDS011;16424;50.956;5.320;2023-08-31T09:06:48;6.72;;;2.00;;
29452;SDS011;16424;50.956;5.320;2023-08-31T09:09:16;4.13;;;1.70;;
29452;SDS011;16424;50.956;5.320;2023-08-31T09:11:42;5.30;;;1.80;;
29452;SDS011;16424;50.956;5.320;2023-08-31T09:14:16;6.63;;;2.22;;
29452;SDS011;16424;50.956;5.320;2023-08-31T09:16:47;4.67;;;1.70;;
29452;SDS011;16424;50.956;5.320;2023-08-31T09:19:23;3.63;;;2.30;;
29452;SDS011;16424;50.956;5.320;2023-08-31T09:21:55;8.55;;;2.05;;
29452;SDS011;16424;50.956;5.320;2023-08-31T09:24:22;5.72;;;2.20;;
29452;SDS011;16424;50.956;5.320;2023-08-31T09:26:58;5.05;;;1.92;;
29452;SDS011;16424;50.956;5.320;2023-08-31T09:29:24;5.70;;;1.77;;
29452;SDS011;16424;50.956;5.320;2023-08-31T09:31:50;8.15;;;2.00;;
29452;SDS011;16424;50.956;5.320;2023-08-31T09:34:16;6.10;;;1.85;;
29452;SDS011;16424;50.956;5.320;2023-08-31T09:36:43;7.47;;;2.90;;
29452;SDS011;16424;50.956;5.320;2023-08-31T09:39:10;5.22;;;1.60;;
29452;SDS011;16424;50.956;5.320;2023-08-31T09:41:52;4.82;;;1.92;;
29452;SDS011;16424;50.956;5.320;2023-08-31T09:44:20;4.57;;;1.75;;
29452;SDS011;16424;50.956;5.320;2023-08-31T09:46:46;7.00;;;2.05;;
29452;SDS011;16424;50.956;5.320;2023-08-31T09:49:13;6.65;;;2.15;;
29452;SDS011;16424;50.956;5.320;2023-08-31T09:51:41;4.43;;;1.75;;
29452;SDS011;16424;50.956;5.320;2023-08-31T09:54:14;4.83;;;1.70;;
29452;SDS011;16424;50.956;5.320;2023-08-31T09:56:44;6.57;;;1.77;;
29452;SDS011;16424;50.956;5.320;2023-08-31T09:59:12;7.72;;;2.30;;
29452;SDS011;16424;50.956;5.320;2023-08-31T10:01:38;7.97;;;2.45;;
29452;SDS011;16424;50.956;5.320;2023-08-31T10:04:05;5.85;;;2.00;;
29452;SDS011;16424;50.956;5.320;2023-08-31T10:06:34;5.75;;;2.08;;
29452;SDS011;16424;50.956;5.320;2023-08-31T10:09:01;5.18;;;2.05;;
29452;SDS011;16424;50.956;5.320;2023-08-31T10:11:28;5.68;;;1.90;;
29452;SDS011;16424;50.956;5.320;2023-08-31T10:13:55;4.43;;;1.92;;
29452;SDS011;16424;50.956;5.320;2023-08-31T10:16:24;5.93;;;1.88;;
29452;SDS011;16424;50.956;5.320;2023-08-31T10:18:52;3.13;;;1.60;;
29452;SDS011;16424;50.956;5.320;2023-08-31T10:21:19;7.50;;;2.00;;
29452;SDS011;16424;50.956;5.320;2023-08-31T10:23:46;3.85;;;2.08;;
29452;SDS011;16424;50.956;5.320;2023-08-31T10:26:12;4.50;;;1.52;;
29452;SDS011;16424;50.956;5.320;2023-08-31T10:28:49;7.53;;;1.90;;
29452;SDS011;16424;50.956;5.320;2023-08-31T10:31:15;5.78;;;2.08;;
29452;SDS011;16424;50.956;5.320;2023-08-31T10:33:43;4.47;;;2.22;;
29452;SDS011;16424;50.956;5.320;2023-08-31T10:41:23;7.80;;;2.05;;
29452;SDS011;16424;50.956;5.320;2023-08-31T10:43:57;5.95;;;1.95;;
29452;SDS011;16424;50.956;5.320;2023-08-31T10:51:30;3.22;;;1.35;;
29452;SDS011;16424;50.956;5.320;2023-08-31T10:54:06;3.92;;;1.65;;
29452;SDS011;16424;50.956;5.320;2023-08-31T10:56:38;2.13;;;1.20;;
29452;SDS011;16424;50.956;5.320;2023-08-31T10:59:24;4.03;;;1.85;;
29452;SDS011;16424;50.956;5.320;2023-08-31T11:01:57;5.22;;;1.70;;
29452;SDS011;16424;50.956;5.320;2023-08-31T11:04:28;4.45;;;1.27;;
29452;SDS011;16424;50.956;5.320;2023-08-31T11:07:13;3.95;;;1.17;;
29452;SDS011;16424;50.956;5.320;2023-08-31T11:09:42;2.75;;;1.23;;
29452;SDS011;16424;50.956;5.320;2023-08-31T11:12:09;3.03;;;1.15;;
29452;SDS011;16424;50.956;5.320;2023-08-31T11:14:35;2.70;;;1.20;;
29452;SDS011;16424;50.956;5.320;2023-08-31T11:17:01;3.08;;;1.27;;
29452;SDS011;16424;50.956;5.320;2023-08-31T11:19:29;4.03;;;1.50;;
29452;SDS011;16424;50.956;5.320;2023-08-31T11:21:54;3.50;;;1.25;;
29452;SDS011;16424;50.956;5.320;2023-08-31T11:24:20;4.65;;;1.20;;
29452;SDS011;16424;50.956;5.320;2023-08-31T11:26:50;1.70;;;1.10;;
29452;SDS011;16424;50.956;5.320;2023-08-31T11:29:16;4.65;;;2.30;;
29452;SDS011;16424;50.956;5.320;2023-08-31T11:31:42;2.10;;;1.10;;
29452;SDS011;16424;50.956;5.320;2023-08-31T11:34:15;5.50;;;1.20;;
29452;SDS011;16424;50.956;5.320;2023-08-31T11:36:42;2.92;;;1.33;;
29452;SDS011;16424;50.956;5.320;2023-08-31T11:39:09;2.72;;;1.73;;
29452;SDS011;16424;50.956;5.320;2023-08-31T11:41:35;4.25;;;1.20;;
29452;SDS011;16424;50.956;5.320;2023-08-31T11:44:07;2.88;;;0.98;;
29452;SDS011;16424;50.956;5.320;2023-08-31T11:46:41;2.10;;;1.10;;
29452;SDS011;16424;50.956;5.320;2023-08-31T11:49:09;4.97;;;1.30;;
29452;SDS011;16424;50.956;5.320;2023-08-31T11:51:35;4.47;;;1.10;;
29452;SDS011;16424;50.956;5.320;2023-08-31T11:54:03;2.53;;;1.00;;
29452;SDS011;16424;50.956;5.320;2023-08-31T11:59:11;5.25;;;1.33;;
29452;SDS011;16424;50.956;5.320;2023-08-31T12:01:40;3.03;;;1.10;;
29452;SDS011;16424;50.956;5.320;2023-08-31T12:04:10;3.67;;;1.00;;
29452;SDS011;16424;50.956;5.320;2023-08-31T12:06:49;1.80;;;1.20;;
29452;SDS011;16424;50.956;5.320;2023-08-31T12:09:16;3.45;;;1.30;;
29452;SDS011;16424;50.956;5.320;2023-08-31T12:11:42;3.33;;;1.40;;
29452;SDS011;16424;50.956;5.320;2023-08-31T12:14:21;3.22;;;1.38;;
29452;SDS011;16424;50.956;5.320;2023-08-31T12:16:50;5.53;;;1.30;;
29452;SDS011;16424;50.956;5.320;2023-08-31T12:19:17;6.95;;;1.58;;
29452;SDS011;16424;50.956;5.320;2023-08-31T12:21:44;1.75;;;1.05;;
29452;SDS011;16424;50.956;5.320;2023-08-31T12:24:11;4.88;;;1.25;;
29452;SDS011;16424;50.956;5.320;2023-08-31T12:26:37;4.47;;;1.10;;
29452;SDS011;16424;50.956;5.320;2023-08-31T12:29:03;5.90;;;1.58;;
29452;SDS011;16424;50.956;5.320;2023-08-31T12:31:30;3.95;;;1.38;;
29452;SDS011;16424;50.956;5.320;2023-08-31T12:33:57;6.38;;;1.58;;
29452;SDS011;16424;50.956;5.320;2023-08-31T12:36:23;7.85;;;1.60;;
29452;SDS011;16424;50.956;5.320;2023-08-31T12:38:49;5.40;;;1.33;;
29452;SDS011;16424;50.956;5.320;2023-08-31T12:41:14;2.25;;;1.02;;
29452;SDS011;16424;50.956;5.320;2023-08-31T12:43:41;3.55;;;1.38;;
29452;SDS011;16424;50.956;5.320;2023-08-31T12:46:07;4.80;;;1.50;;
29452;SDS011;16424;50.956;5.320;2023-08-31T12:48:34;3.05;;;1.17;;
29452;SDS011;16424;50.956;5.320;2023-08-31T12:51:00;2.17;;;1.15;;
29452;SDS011;16424;50.956;5.320;2023-08-31T12:53:26;3.70;;;1.10;;
29452;SDS011;16424;50.956;5.320;2023-08-31T12:55:52;3.78;;;1.10;;
29452;SDS011;16424;50.956;5.320;2023-08-31T12:58:19;3.45;;;1.60;;
29452;SDS011;16424;50.956;5.320;2023-08-31T13:00:46;2.00;;;1.15;;
29452;SDS011;16424;50.956;5.320;2023-08-31T13:03:14;9.00;;;2.28;;
29452;SDS011;16424;50.956;5.320;2023-08-31T13:05:40;5.90;;;1.15;;
29452;SDS011;16424;50.956;5.320;2023-08-31T13:08:06;4.95;;;1.30;;
29452;SDS011;16424;50.956;5.320;2023-08-31T13:10:34;1.52;;;1.05;;
29452;SDS011;16424;50.956;5.320;2023-08-31T13:13:00;5.47;;;1.48;;
29452;SDS011;16424;50.956;5.320;2023-08-31T13:15:26;2.35;;;1.02;;
29452;SDS011;16424;50.956;5.320;2023-08-31T13:17:52;5.35;;;1.60;;
29452;SDS011;16424;50.956;5.320;2023-08-31T13:20:17;3.00;;;1.23;;
29452;SDS011;16424;50.956;5.320;2023-08-31T13:22:43;5.50;;;1.30;;
29452;SDS011;16424;50.956;5.320;2023-08-31T13:25:09;4.10;;;1.20;;
29452;SDS011;16424;50.956;5.320;2023-08-31T13:27:36;3.35;;;1.25;;
29452;SDS011;16424;50.956;5.320;2023-08-31T13:30:02;2.72;;;1.05;;
29452;SDS011;16424;50.956;5.320;2023-08-31T13:32:32;4.03;;;1.55;;
29452;SDS011;16424;50.956;5.320;2023-08-31T13:34:59;3.63;;;1.33;;
29452;SDS011;16424;50.956;5.320;2023-08-31T13:37:25;2.67;;;1.42;;
29452;SDS011;16424;50.956;5.320;2023-08-31T13:39:51;5.03;;;1.35;;
29452;SDS011;16424;50.956;5.320;2023-08-31T13:42:17;3.28;;;1.70;;
29452;SDS011;16424;50.956;5.320;2023-08-31T13:44:45;4.68;;;1.73;;
29452;SDS011;16424;50.956;5.320;2023-08-31T13:47:11;2.17;;;0.93;;
29452;SDS011;16424;50.956;5.320;2023-08-31T13:49:36;6.30;;;1.92;;
29452;SDS011;16424;50.956;5.320;2023-08-31T13:52:02;6.10;;;1.77;;
29452;SDS011;16424;50.956;5.320;2023-08-31T13:54:30;3.70;;;1.45;;
29452;SDS011;16424;50.956;5.320;2023-08-31T13:56:56;4.03;;;1.30;;
29452;SDS011;16424;50.956;5.320;2023-08-31T13:59:22;3.53;;;1.48;;
29452;SDS011;16424;50.956;5.320;2023-08-31T14:01:48;5.13;;;1.52;;
29452;SDS011;16424;50.956;5.320;2023-08-31T14:04:13;4.28;;;1.10;;
29452;SDS011;16424;50.956;5.320;2023-08-31T14:06:39;3.47;;;1.80;;
29452;SDS011;16424;50.956;5.320;2023-08-31T14:09:05;3.30;;;1.23;;
29452;SDS011;16424;50.956;5.320;2023-08-31T14:11:32;1.70;;;0.90;;
29452;SDS011;16424;50.956;5.320;2023-08-31T14:14:02;4.50;;;1.88;;
29452;SDS011;16424;50.956;5.320;2023-08-31T14:16:30;3.08;;;1.35;;
29452;SDS011;16424;50.956;5.320;2023-08-31T14:18:56;5.40;;;1.23;;
29452;SDS011;16424;50.956;5.320;2023-08-31T14:21:22;7.20;;;1.58;;
29452;SDS011;16424;50.956;5.320;2023-08-31T14:23:47;3.17;;;1.10;;
29452;SDS011;16424;50.956;5.320;2023-08-31T14:26:13;3.33;;;1.10;;
29452;SDS011;16424;50.956;5.320;2023-08-31T14:28:39;4.20;;;1.58;;
29452;SDS011;16424;50.956;5.320;2023-08-31T14:31:05;4.32;;;1.40;;
29452;SDS011;16424;50.956;5.320;2023-08-31T14:33:32;2.80;;;1.10;;
29452;SDS011;16424;50.956;5.320;2023-08-31T14:35:58;4.70;;;1.13;;
29452;SDS011;16424;50.956;5.320;2023-08-31T14:38:24;4.82;;;1.83;;
29452;SDS011;16424;50.956;5.320;2023-08-31T14:40:50;6.53;;;1.42;;
29452;SDS011;16424;50.956;5.320;2023-08-31T14:43:16;3.65;;;1.08;;
29452;SDS011;16424;50.956;5.320;2023-08-31T14:45:42;2.60;;;1.10;;
29452;SDS011;16424;50.956;5.320;2023-08-31T14:48:08;6.68;;;1.27;;
29452;SDS011;16424;50.956;5.320;2023-08-31T14:50:34;5.90;;;1.52;;
29452;SDS011;16424;50.956;5.320;2023-08-31T14:52:59;4.03;;;1.65;;
29452;SDS011;16424;50.956;5.320;2023-08-31T14:55:25;4.63;;;1.40;;
29452;SDS011;16424;50.956;5.320;2023-08-31T14:57:51;4.75;;;1.27;;
29452;SDS011;16424;50.956;5.320;2023-08-31T15:00:17;2.88;;;1.60;;
29452;SDS011;16424;50.956;5.320;2023-08-31T15:02:43;3.75;;;1.20;;
29452;SDS011;16424;50.956;5.320;2023-08-31T15:05:09;2.53;;;1.30;;
29452;SDS011;16424;50.956;5.320;2023-08-31T15:07:35;3.28;;;1.20;;
29452;SDS011;16424;50.956;5.320;2023-08-31T15:10:01;3.80;;;1.33;;